NCAR-RAP Real-Time Weather Data

Output produced by METARs form (23 February 2020  01:48 UTC)
found at http://weather.rap.ucar.edu/surface/
 
KATY 230053Z AUTO 22004KT 10SM CLR M02/M05 A2984 RMK AO2 SLP131 T10221050
KATY 222353Z AUTO 24006KT 10SM CLR M01/M04 A2983 RMK AO2 SLP129 T10111044 10017 21011 51007